Time;durP1;ratioP1;P1;durP2;ratioP2;P2;SDS_P1;SDS_P2;PMS_P1;PMS_P2;Temp;Humidity;BMP_temperature;BMP_pressure;BME280_temperature;BME280_humidity;BME280_pressure;Samples;Min_cycle;Max_cycle;Signal;HPM_P1;HPM_P2
2023/06/18 00:00:46;;;;;;;0.00;0.00;;;;;;;15.37;62.24;99130.25;5074389;28;20053;-63
2023/06/18 00:03:14;;;;;;;0.00;0.00;;;;;;;15.56;59.93;99122.34;5080322;28;20102;-63
2023/06/18 00:05:41;;;;;;;0.00;0.00;;;;;;;15.48;61.47;99121.03;5071422;28;20051;-64
2023/06/18 00:08:10;;;;;;;0.00;0.00;;;;;;;15.31;63.07;99128.69;5081929;28;20044;-63
2023/06/18 00:10:38;;;;;;;0.03;0.03;;;;;;;15.27;65.23;99124.91;5077940;28;20058;-63
2023/06/18 00:13:07;;;;;;;0.08;0.08;;;;;;;15.16;66.42;99123.34;5079843;28;20044;-64
2023/06/18 00:15:34;;;;;;;0.00;0.00;;;;;;;15.07;67.93;99123.06;5074019;28;20130;-63
2023/06/18 00:18:02;;;;;;;0.10;0.10;;;;;;;14.98;68.43;99127.44;5070481;28;20107;-64
2023/06/18 00:20:29;;;;;;;0.38;0.13;;;;;;;14.96;68.43;99127.69;5074546;28;20047;-64
2023/06/18 00:22:57;;;;;;;0.10;0.10;;;;;;;14.84;69.26;99128.00;5077038;28;20568;-63
2023/06/18 00:25:26;;;;;;;0.00;0.00;;;;;;;14.80;69.64;99135.03;5075840;28;20072;-63
2023/06/18 00:27:53;;;;;;;0.03;0.03;;;;;;;14.72;68.39;99124.78;5078961;28;20044;-63
2023/06/18 00:30:21;;;;;;;0.00;0.00;;;;;;;14.46;68.27;99124.78;5076454;28;20044;-63
2023/06/18 00:32:49;;;;;;;0.00;0.00;;;;;;;14.46;67.69;99124.78;5077087;28;20086;-64
2023/06/18 00:35:17;;;;;;;0.08;0.08;;;;;;;14.56;69.33;99131.28;5077578;28;20048;-64
2023/06/18 00:37:44;;;;;;;0.00;0.00;;;;;;;14.58;69.21;99131.81;5073132;28;20066;-65
2023/06/18 00:40:12;;;;;;;0.00;0.00;;;;;;;14.59;69.99;99136.13;5077655;28;20581;-64
2023/06/18 00:42:41;;;;;;;0.00;0.00;;;;;;;14.57;68.83;99135.56;5070229;28;20048;-64
2023/06/18 00:45:11;;;;;;;0.38;0.00;;;;;;;14.45;67.81;99133.94;5070618;28;20076;-64
2023/06/18 00:47:40;;;;;;;0.00;0.00;;;;;;;14.35;68.71;99120.47;5077291;28;20044;-65
2023/06/18 00:50:08;;;;;;;0.10;0.10;;;;;;;14.37;69.05;99122.88;5079065;28;20044;-65
2023/06/18 00:52:37;;;;;;;0.00;0.00;;;;;;;14.35;69.01;99125.03;5081509;28;20117;-65
2023/06/18 00:55:05;;;;;;;0.10;0.10;;;;;;;14.37;68.42;99120.19;5083761;28;20155;-64
2023/06/18 00:57:34;;;;;;;0.10;0.10;;;;;;;14.39;69.26;99121.53;5078014;28;20090;-63
2023/06/18 01:00:04;;;;;;;0.00;0.00;;;;;;;14.33;70.73;99117.22;5079714;28;20045;-64
2023/06/18 01:02:32;;;;;;;0.00;0.00;;;;;;;14.37;71.00;99118.28;5073445;28;20045;-64
2023/06/18 01:04:59;;;;;;;0.00;0.00;;;;;;;14.22;72.21;99116.41;5078961;28;20047;-63
2023/06/18 01:07:27;;;;;;;0.10;0.10;;;;;;;14.20;71.27;99117.75;5079347;28;20445;-63
2023/06/18 01:09:55;;;;;;;0.10;0.10;;;;;;;14.21;71.28;99117.50;5072801;28;20068;-63
2023/06/18 01:12:22;;;;;;;0.00;0.00;;;;;;;14.27;72.66;99123.69;5077048;28;20049;-63
2023/06/18 01:14:51;;;;;;;0.08;0.08;;;;;;;14.26;72.64;99114.00;5081740;28;20044;-65
2023/06/18 01:17:21;;;;;;;0.00;0.00;;;;;;;14.23;73.11;99111.84;5079071;28;20140;-65
2023/06/18 01:19:51;;;;;;;0.15;0.10;;;;;;;14.08;73.67;99109.09;5071308;28;20475;-64
2023/06/18 01:22:26;;;;;;;0.00;0.00;;;;;;;14.05;73.80;99110.44;5079409;28;20048;-64
2023/06/18 01:24:57;;;;;;;0.00;0.00;;;;;;;14.15;73.64;99106.97;5080029;28;20049;-63
2023/06/18 01:27:25;;;;;;;0.00;0.00;;;;;;;14.08;73.94;99101.03;5071663;28;20101;-63
2023/06/18 01:29:52;;;;;;;0.00;0.00;;;;;;;14.07;74.87;99100.22;5084782;28;20040;-63
2023/06/18 01:32:21;;;;;;;0.10;0.10;;;;;;;14.02;74.59;99094.84;5070244;28;20043;-63
2023/06/18 01:34:53;;;;;;;0.08;0.08;;;;;;;14.10;74.36;99091.59;5077530;28;20954;-63
2023/06/18 01:37:28;;;;;;;0.10;0.10;;;;;;;14.05;74.36;99094.28;5075446;28;20036;-63
2023/06/18 01:40:00;;;;;;;0.00;0.00;;;;;;;14.10;74.50;99091.59;5082895;28;20166;-63
2023/06/18 01:42:27;;;;;;;0.10;0.10;;;;;;;14.01;74.66;99095.91;5077752;28;20255;-65
2023/06/18 01:44:58;;;;;;;0.10;0.10;;;;;;;13.99;73.84;99085.41;5081613;28;20048;-64
2023/06/18 01:47:27;;;;;;;0.03;0.03;;;;;;;13.85;74.86;99088.88;5061060;28;20048;-65
2023/06/18 01:49:55;;;;;;;0.10;0.10;;;;;;;13.79;76.14;99085.38;5085908;28;20502;-65
2023/06/18 01:52:23;;;;;;;0.00;0.00;;;;;;;13.71;76.41;99077.84;5079482;28;20044;-64
2023/06/18 01:54:50;;;;;;;0.05;0.05;;;;;;;13.66;76.84;99085.91;5081226;28;20101;-65
2023/06/18 01:57:18;;;;;;;0.00;0.00;;;;;;;13.56;77.36;99084.78;5076240;28;20113;-65
2023/06/18 01:59:45;;;;;;;0.03;0.03;;;;;;;13.52;77.87;99085.56;5076055;28;20357;-65
2023/06/18 02:02:14;;;;;;;0.00;0.00;;;;;;;13.43;78.37;99082.59;5075717;28;20060;-63
2023/06/18 02:04:43;;;;;;;0.00;0.00;;;;;;;13.31;79.14;99092.78;5088321;28;20048;-64
2023/06/18 02:07:11;;;;;;;0.00;0.00;;;;;;;13.36;78.79;99085.53;5078888;28;20067;-63
2023/06/18 02:09:38;;;;;;;0.10;0.10;;;;;;;13.28;80.34;99079.84;5079089;28;20165;-64
2023/06/18 02:12:07;;;;;;;0.00;0.00;;;;;;;13.16;80.29;99083.53;5076467;28;20474;-63
2023/06/18 02:14:34;;;;;;;0.00;0.00;;;;;;;13.29;79.40;99089.56;5080347;28;20040;-63
2023/06/18 02:17:02;;;;;;;0.00;0.00;;;;;;;13.40;79.25;99082.31;5076986;28;20204;-63
2023/06/18 02:19:29;;;;;;;0.10;0.10;;;;;;;13.46;78.66;99090.16;5076914;28;20047;-63
2023/06/18 02:21:58;;;;;;;0.05;0.05;;;;;;;13.44;79.22;99091.50;5074317;28;20123;-63
2023/06/18 02:24:26;;;;;;;0.10;0.10;;;;;;;13.42;79.15;99086.34;5077735;28;20056;-64
2023/06/18 02:26:53;;;;;;;0.10;0.10;;;;;;;13.34;81.01;99073.41;5078566;28;20132;-63
2023/06/18 02:29:21;;;;;;;0.10;0.10;;;;;;;13.16;79.45;99072.78;5077244;28;20056;-63
2023/06/18 02:31:48;;;;;;;0.15;0.15;;;;;;;13.18;79.44;99072.53;5079926;28;20483;-64
2023/06/18 02:34:18;;;;;;;0.00;0.00;;;;;;;13.29;77.51;99071.50;5079710;28;20474;-63
2023/06/18 02:36:47;;;;;;;0.10;0.10;;;;;;;13.27;78.21;99079.03;5081980;28;20033;-65
2023/06/18 02:39:17;;;;;;;0.10;0.10;;;;;;;13.44;78.46;99078.84;5075111;28;20062;-63
2023/06/18 02:41:45;;;;;;;0.10;0.10;;;;;;;13.67;78.83;99076.72;5083979;28;20514;-63
2023/06/18 02:44:13;;;;;;;0.00;0.00;;;;;;;13.56;78.12;99087.47;5079740;28;20513;-63
2023/06/18 02:46:41;;;;;;;0.30;0.10;;;;;;;13.31;79.66;99084.72;5082755;28;20048;-63
2023/06/18 02:49:08;;;;;;;0.00;0.00;;;;;;;13.09;79.69;99076.78;5086071;28;20051;-63
2023/06/18 02:51:37;;;;;;;0.20;0.20;;;;;;;12.93;79.91;99078.59;5084735;28;20044;-65
2023/06/18 02:54:05;;;;;;;0.10;0.10;;;;;;;12.82;81.70;99079.59;5079418;28;20055;-63
2023/06/18 02:56:34;;;;;;;0.00;0.00;;;;;;;12.94;80.51;99077.53;5061636;28;20291;-63
2023/06/18 02:59:02;;;;;;;0.10;0.10;;;;;;;13.14;79.91;99079.50;5078319;28;20048;-65
2023/06/18 03:01:31;;;;;;;0.00;0.00;;;;;;;13.13;79.96;99084.06;5070126;28;20040;-63
2023/06/18 03:03:59;;;;;;;0.03;0.03;;;;;;;12.88;81.26;99082.06;5071891;28;20074;-64
2023/06/18 03:06:29;;;;;;;0.00;0.00;;;;;;;12.77;83.03;99084.97;5085131;28;20044;-63
2023/06/18 03:08:56;;;;;;;0.00;0.00;;;;;;;12.83;82.41;99083.91;5082272;28;20135;-63
2023/06/18 03:11:26;;;;;;;0.10;0.10;;;;;;;13.03;81.30;99078.66;5077171;28;20053;-63
2023/06/18 03:13:55;;;;;;;0.10;0.10;;;;;;;12.98;80.44;99081.31;5069794;28;20071;-63
2023/06/18 03:16:23;;;;;;;0.10;0.10;;;;;;;12.76;83.46;99081.47;5081389;28;20105;-63
2023/06/18 03:18:51;;;;;;;0.10;0.10;;;;;;;12.89;84.39;99077.50;5076488;28;20068;-63
2023/06/18 03:21:20;;;;;;;0.10;0.10;;;;;;;12.87;82.39;99068.88;5072792;28;20135;-63
2023/06/18 03:23:49;;;;;;;0.00;0.00;;;;;;;13.13;80.91;99078.69;5069007;28;20041;-63
2023/06/18 03:26:18;;;;;;;0.00;0.00;;;;;;;13.24;80.24;99067.97;5068215;28;20067;-64
2023/06/18 03:28:46;;;;;;;0.08;0.08;;;;;;;13.36;80.14;99076.66;5070370;28;20041;-65
2023/06/18 03:31:15;;;;;;;0.10;0.10;;;;;;;13.51;78.73;99079.41;5070512;28;20475;-64
2023/06/18 03:33:44;;;;;;;;;;;;;;;13.72;79.04;99068.66;5098003;28;20098;-64
2023/06/18 03:36:15;;;;;;;0.10;0.10;;;;;;;13.99;77.54;99074.63;5075173;28;20326;-63
2023/06/18 03:38:43;;;;;;;;;;;;;;;14.27;76.24;99069.78;5080630;28;20029;-63
2023/06/18 03:41:10;;;;;;;0.10;0.10;;;;;;;14.44;73.96;99078.38;5060966;28;19924;-63
2023/06/18 03:43:38;;;;;;;0.00;0.00;;;;;;;13.88;77.17;99080.25;5075147;28;20483;-64
2023/06/18 03:46:05;;;;;;;0.03;0.03;;;;;;;14.57;74.72;99079.75;5073130;28;20082;-64
2023/06/18 03:48:36;;;;;;;0.00;0.00;;;;;;;14.97;72.44;99082.63;5059035;28;20055;-63
2023/06/18 03:51:05;;;;;;;0.00;0.00;;;;;;;14.72;73.43;99081.59;5074382;28;20312;-63
2023/06/18 03:53:37;;;;;;;0.10;0.10;;;;;;;15.16;72.33;99089.03;5077196;28;20040;-64
2023/06/18 03:56:04;;;;;;;;;;;;;;;15.18;71.77;99094.97;5087277;28;20051;-64
2023/06/18 03:58:32;;;;;;;0.00;0.00;;;;;;;13.87;77.16;99097.50;5081696;28;19926;-63
2023/06/18 04:00:59;;;;;;;0.00;0.00;;;;;;;14.54;75.28;99101.06;5075766;28;20067;-64
2023/06/18 04:03:27;;;;;;;0.10;0.10;;;;;;;14.52;73.95;99103.19;5075040;28;20071;-63
2023/06/18 04:05:57;;;;;;;0.05;0.05;;;;;;;13.94;76.90;99106.94;5071764;28;20131;-63
2023/06/18 04:08:25;;;;;;;0.10;0.10;;;;;;;14.46;76.18;99099.69;5082536;28;20059;-63
2023/06/18 04:10:53;;;;;;;0.00;0.00;;;;;;;15.41;71.27;99103.53;5078595;28;20414;-64
2023/06/18 04:13:21;;;;;;;0.10;0.10;;;;;;;15.83;69.69;99099.56;5055241;28;20093;-64
2023/06/18 04:15:48;;;;;;;0.10;0.10;;;;;;;15.98;69.22;99094.03;5081580;28;20072;-64
2023/06/18 04:18:17;;;;;;;0.00;0.00;;;;;;;16.33;66.95;99092.97;5070350;28;20139;-63
2023/06/18 04:20:45;;;;;;;0.00;0.00;;;;;;;16.17;66.81;99095.00;5075741;28;20489;-62
2023/06/18 04:23:15;;;;;;;0.00;0.00;;;;;;;15.56;69.17;99100.75;5072788;28;20041;-63
2023/06/18 04:25:44;;;;;;;0.00;0.00;;;;;;;16.32;66.00;99106.75;5078932;28;20048;-63
2023/06/18 04:28:12;;;;;;;0.08;0.08;;;;;;;15.51;69.48;99117.78;5079189;28;20040;-62
2023/06/18 04:30:39;;;;;;;0.10;0.10;;;;;;;16.32;66.72;99112.16;5077301;28;20449;-62
2023/06/18 04:33:08;;;;;;;0.10;0.10;;;;;;;16.13;67.86;99115.56;5073415;28;20044;-62
2023/06/18 04:35:35;;;;;;;0.00;0.00;;;;;;;16.18;67.58;99112.00;5073843;28;20033;-62
2023/06/18 04:38:03;;;;;;;0.00;0.00;;;;;;;16.47;66.78;99108.53;5074402;28;20055;-63
2023/06/18 04:40:32;;;;;;;0.00;0.00;;;;;;;17.38;64.18;99112.19;5065529;28;20044;-63
2023/06/18 04:43:00;;;;;;;;;;;;;;;17.71;61.20;99114.22;5076414;28;20098;-63
2023/06/18 04:45:34;;;;;;;0.03;0.03;;;;;;;17.62;62.39;99105.91;5077472;28;19929;-62
2023/06/18 04:48:02;;;;;;;0.00;0.00;;;;;;;17.16;63.15;99110.00;5070382;28;20048;-63
2023/06/18 04:50:30;;;;;;;0.00;0.00;;;;;;;17.42;61.99;99113.25;5093406;28;20036;-63
2023/06/18 04:52:58;;;;;;;0.00;0.00;;;;;;;18.02;60.58;99109.19;5054351;28;20036;-63
2023/06/18 04:55:26;;;;;;;0.00;0.00;;;;;;;17.62;62.06;99111.34;5059750;28;20519;-63
2023/06/18 04:57:57;;;;;;;0.00;0.00;;;;;;;17.86;61.05;99114.81;5094550;28;20121;-63
2023/06/18 05:00:26;;;;;;;0.17;0.17;;;;;;;18.28;59.63;99104.97;5071757;28;20033;-63
2023/06/18 05:02:57;;;;;;;0.10;0.10;;;;;;;19.39;55.56;99105.13;5071089;28;20134;-63
2023/06/18 05:05:24;;;;;;;0.00;0.00;;;;;;;19.37;55.24;99110.09;5080684;28;20412;-63
2023/06/18 05:07:53;;;;;;;0.00;0.00;;;;;;;19.98;54.26;99097.88;5075659;28;20040;-63
2023/06/18 05:10:21;;;;;;;0.00;0.00;;;;;;;20.04;53.49;99107.56;5070014;28;20055;-63
2023/06/18 05:12:49;;;;;;;0.00;0.00;;;;;;;20.98;50.99;99098.69;5069874;28;20415;-63
2023/06/18 05:15:17;;;;;;;0.10;0.10;;;;;;;20.91;50.97;99101.84;5078981;28;20300;-63
2023/06/18 05:17:45;;;;;;;0.00;0.00;;;;;;;20.35;52.92;99104.09;5075726;28;20040;-63
2023/06/18 05:20:15;;;;;;;0.10;0.10;;;;;;;20.19;53.47;99111.00;5074633;28;20056;-62
2023/06/18 05:22:43;;;;;;;0.00;0.00;;;;;;;21.26;51.23;99123.78;5059140;28;20127;-63
2023/06/18 05:25:13;;;;;;;0.00;0.00;;;;;;;21.88;48.18;99111.91;5073872;28;20044;-63
2023/06/18 05:27:40;;;;;;;0.00;0.00;;;;;;;22.09;47.09;99121.06;5078139;28;20106;-62
2023/06/18 05:30:10;;;;;;;0.00;0.00;;;;;;;21.52;48.53;99124.69;5070172;28;20401;-63
2023/06/18 05:32:40;;;;;;;0.00;0.00;;;;;;;22.29;47.64;99130.56;5074885;28;20055;-63
2023/06/18 05:35:11;;;;;;;0.00;0.00;;;;;;;22.15;48.21;99136.16;5068920;28;20053;-63
2023/06/18 05:37:46;;;;;;;0.32;0.10;;;;;;;22.84;46.77;99134.47;5097268;28;20041;-63
2023/06/18 05:40:15;;;;;;;0.10;0.05;;;;;;;22.87;46.95;99138.47;5073346;28;20048;-64
2023/06/18 05:42:43;;;;;;;0.08;0.03;;;;;;;23.38;45.72;99140.22;5078899;28;20063;-64
2023/06/18 05:45:12;;;;;;;0.00;0.00;;;;;;;22.89;47.37;99142.50;5081129;28;20040;-65
2023/06/18 05:47:42;;;;;;;0.00;0.00;;;;;;;23.18;46.75;99140.97;5071808;28;20036;-62
2023/06/18 05:50:12;;;;;;;0.00;0.00;;;;;;;22.60;47.76;99138.53;5075408;28;20305;-64
2023/06/18 05:52:40;;;;;;;0.00;0.00;;;;;;;22.27;48.19;99141.00;5081434;28;20527;-62
2023/06/18 05:55:08;;;;;;;0.00;0.00;;;;;;;22.34;48.20;99144.06;5076138;28;20044;-63
2023/06/18 05:57:36;;;;;;;;;;;;;;;23.27;45.67;99147.19;5073223;28;20040;-62
2023/06/18 06:00:07;;;;;;;0.00;0.00;;;;;;;23.13;46.23;99143.88;5089930;28;19924;-63
2023/06/18 06:02:43;;;;;;;0.00;0.00;;;;;;;23.46;45.48;99146.75;5079811;28;20041;-63
2023/06/18 06:05:18;;;;;;;0.00;0.00;;;;;;;23.94;44.68;99144.72;5074698;28;20493;-62
2023/06/18 06:07:45;;;;;;;0.00;0.00;;;;;;;24.36;43.56;99140.03;5075787;28;20466;-63
2023/06/18 06:10:15;;;;;;;;;;;;;;;23.53;44.59;99140.78;5071158;28;20557;-62
2023/06/18 06:12:42;;;;;;;0.00;0.00;;;;;;;23.25;45.19;99142.06;5081260;28;19959;-63
2023/06/18 06:15:10;;;;;;;0.00;0.00;;;;;;;23.31;45.58;99142.66;5057353;28;20141;-64
2023/06/18 06:17:38;;;;;;;0.00;0.00;;;;;;;23.42;45.00;99141.16;5079201;28;20112;-64
2023/06/18 06:20:08;;;;;;;0.10;0.10;;;;;;;23.36;45.67;99138.94;5074105;28;20124;-65
2023/06/18 06:22:35;;;;;;;0.00;0.00;;;;;;;25.14;41.79;99136.47;5075369;28;20040;-64
2023/06/18 06:25:03;;;;;;;0.00;0.00;;;;;;;25.21;41.32;99135.13;5080017;28;20123;-64
2023/06/18 06:27:31;;;;;;;0.00;0.00;;;;;;;26.20;40.00;99137.41;5082766;28;20040;-63
2023/06/18 06:30:01;;;;;;;0.08;0.05;;;;;;;26.80;38.60;99136.69;5075760;28;20498;-64
2023/06/18 06:32:29;;;;;;;0.08;0.00;;;;;;;26.91;38.89;99137.78;5074225;28;20049;-61
2023/06/18 06:34:56;;;;;;;0.10;0.10;;;;;;;26.90;38.60;99134.22;5089749;28;20047;-62
2023/06/18 06:37:26;;;;;;;0.00;0.00;;;;;;;27.25;37.76;99135.50;5074210;28;20491;-62
2023/06/18 06:39:54;;;;;;;0.05;0.05;;;;;;;27.36;37.35;99136.56;5073591;28;20090;-63
2023/06/18 06:42:22;;;;;;;0.00;0.00;;;;;;;26.87;38.58;99136.88;5070891;28;20504;-62
2023/06/18 06:45:11;;;;;;;0.00;0.00;;;;;;;27.72;36.41;99132.66;5082211;28;20136;-62
2023/06/18 06:48:05;;;;;;;0.10;0.10;;;;;;;27.86;36.20;99134.97;5075030;28;20044;-64
2023/06/18 06:50:53;;;;;;;0.00;0.00;;;;;;;26.91;37.21;99135.03;5078150;28;20083;-63
2023/06/18 06:53:51;;;;;;;0.00;0.00;;;;;;;26.51;38.42;99140.59;5066810;28;20041;-63
2023/06/18 06:56:19;;;;;;;0.00;0.00;;;;;;;26.38;39.79;99135.16;5081656;28;20377;-63
2023/06/18 06:58:46;;;;;;;0.00;0.00;;;;;;;26.78;39.14;99133.50;5078701;28;20330;-63
2023/06/18 07:01:15;;;;;;;0.10;0.10;;;;;;;28.44;36.82;99131.41;5089687;28;20123;-62
2023/06/18 07:03:42;;;;;;;0.00;0.00;;;;;;;28.39;37.12;99132.50;5080198;28;20039;-62
2023/06/18 07:06:09;;;;;;;0.00;0.00;;;;;;;28.35;36.26;99134.38;5084306;28;20517;-62
2023/06/18 07:08:37;;;;;;;0.00;0.00;;;;;;;28.35;37.16;99137.13;5080522;28;20342;-65
2023/06/18 07:11:06;;;;;;;0.00;0.00;;;;;;;27.04;38.92;99138.50;5070631;28;20481;-63
2023/06/18 07:13:33;;;;;;;0.13;0.00;;;;;;;29.18;36.25;99133.16;5081953;28;20051;-63
2023/06/18 07:16:01;;;;;;;0.00;0.00;;;;;;;29.26;36.37;99132.13;5076724;28;20052;-62
2023/06/18 07:18:28;;;;;;;0.10;0.00;;;;;;;28.69;37.23;99128.38;5082602;28;20044;-63
2023/06/18 07:20:56;;;;;;;0.00;0.00;;;;;;;28.95;36.47;99135.91;5081137;28;20044;-62
2023/06/18 07:23:23;;;;;;;0.00;0.00;;;;;;;29.99;35.08;99143.06;5075920;28;20045;-62
2023/06/18 07:25:51;;;;;;;0.00;0.00;;;;;;;29.55;35.98;99129.78;5078987;28;20063;-63
2023/06/18 07:28:20;;;;;;;0.00;0.00;;;;;;;30.81;33.78;99126.63;5081054;28;20044;-63
2023/06/18 07:30:47;;;;;;;0.00;0.00;;;;;;;29.79;35.28;99126.63;5082049;28;20063;-64
2023/06/18 07:33:15;;;;;;;0.00;0.00;;;;;;;28.98;35.86;99127.69;5079608;28;20347;-64
2023/06/18 07:35:42;;;;;;;0.20;0.00;;;;;;;30.38;34.34;99117.88;5073835;28;20040;-63
2023/06/18 07:38:10;;;;;;;0.00;0.00;;;;;;;29.45;35.70;99129.28;5076863;28;20186;-65
2023/06/18 07:40:38;;;;;;;0.00;0.00;;;;;;;28.98;36.43;99124.94;5073180;28;20040;-63
2023/06/18 07:43:05;;;;;;;0.00;0.00;;;;;;;29.09;36.09;99119.63;5081941;28;20328;-63
2023/06/18 07:45:34;;;;;;;0.00;0.00;;;;;;;31.51;33.65;99120.09;5069833;28;20068;-63
2023/06/18 07:48:02;;;;;;;0.00;0.00;;;;;;;30.60;34.23;99116.13;5076160;28;20086;-65
2023/06/18 07:50:30;;;;;;;0.00;0.00;;;;;;;30.61;34.31;99118.53;5074808;28;20070;-65
2023/06/18 07:52:57;;;;;;;0.00;0.00;;;;;;;31.30;33.22;99123.50;5076767;28;20297;-65
2023/06/18 07:55:25;;;;;;;0.00;0.00;;;;;;;29.43;35.91;99112.28;5080675;28;20036;-64
2023/06/18 07:57:52;;;;;;;0.00;0.00;;;;;;;30.88;33.49;99116.44;5079617;28;20127;-65
2023/06/18 08:00:20;;;;;;;0.00;0.00;;;;;;;31.44;33.25;99122.03;5072762;28;20459;-65
2023/06/18 08:02:49;;;;;;;0.00;0.00;;;;;;;31.25;33.47;99111.97;5078737;28;20050;-65
2023/06/18 08:05:16;;;;;;;0.00;0.00;;;;;;;31.49;33.04;99116.13;5072838;28;20067;-64
2023/06/18 08:07:43;;;;;;;0.00;0.00;;;;;;;30.84;33.32;99112.84;5077589;28;20046;-64
2023/06/18 08:10:11;;;;;;;0.00;0.00;;;;;;;28.67;37.26;99114.94;5068821;28;20064;-65
2023/06/18 08:12:38;;;;;;;0.00;0.00;;;;;;;30.59;34.49;99115.34;5075637;28;20440;-64
2023/06/18 08:15:07;;;;;;;0.00;0.00;;;;;;;30.50;35.15;99109.31;5068979;28;20040;-65
2023/06/18 08:17:35;;;;;;;0.00;0.00;;;;;;;31.24;33.76;99110.41;5083035;28;20044;-64
2023/06/18 08:20:04;;;;;;;0.00;0.00;;;;;;;30.48;34.83;99104.19;5072513;28;20494;-64
2023/06/18 08:22:31;;;;;;;0.00;0.00;;;;;;;29.26;36.25;99107.28;5077460;28;20040;-64
2023/06/18 08:24:59;;;;;;;0.00;0.00;;;;;;;30.68;35.47;99103.97;5078733;28;20405;-64
2023/06/18 08:27:26;;;;;;;0.00;0.00;;;;;;;31.27;33.85;99102.09;5077313;28;20067;-64
2023/06/18 08:29:54;;;;;;;0.00;0.00;;;;;;;32.57;32.78;99095.25;5075803;28;20071;-64
2023/06/18 08:32:21;;;;;;;0.00;0.00;;;;;;;32.32;32.34;99098.72;5075479;28;20056;-64
2023/06/18 08:34:49;;;;;;;0.00;0.00;;;;;;;32.41;33.08;99099.16;5078745;28;20048;-64
2023/06/18 08:37:18;;;;;;;0.00;0.00;;;;;;;32.29;33.08;99107.03;5080839;28;20482;-64
2023/06/18 08:39:45;;;;;;;0.13;0.00;;;;;;;33.00;32.81;99107.19;5074116;28;20067;-64
2023/06/18 08:42:17;;;;;;;0.00;0.00;;;;;;;32.67;33.30;99102.78;5075313;28;20040;-65
2023/06/18 08:44:46;;;;;;;0.00;0.00;;;;;;;32.97;32.09;99096.06;5078612;28;20090;-64
2023/06/18 08:47:13;;;;;;;0.00;0.00;;;;;;;32.79;32.40;99096.06;5076071;28;20055;-64
2023/06/18 08:49:42;;;;;;;0.00;0.00;;;;;;;32.66;32.51;99098.44;5077468;28;20098;-64
2023/06/18 08:52:10;;;;;;;0.00;0.00;;;;;;;32.41;32.48;99096.38;5066938;28;20067;-63
2023/06/18 08:54:39;;;;;;;0.00;0.00;;;;;;;33.00;32.38;99100.81;5079142;28;20579;-64
2023/06/18 08:57:11;;;;;;;0.00;0.00;;;;;;;32.22;33.03;99096.72;5077572;28;20087;-64
2023/06/18 08:59:39;;;;;;;0.00;0.00;;;;;;;33.22;32.02;99098.84;5068776;28;20037;-64
2023/06/18 09:02:07;;;;;;;0.10;0.00;;;;;;;33.28;32.74;99088.94;5080991;28;20109;-64
2023/06/18 09:04:35;;;;;;;0.00;0.00;;;;;;;29.63;36.71;99087.28;5078719;28;20105;-64
2023/06/18 09:07:03;;;;;;;0.22;0.08;;;;;;;31.75;34.96;99090.16;5074967;28;20299;-63
2023/06/18 09:09:30;;;;;;;0.00;0.00;;;;;;;32.96;33.26;99083.38;5078319;28;20032;-64
2023/06/18 09:12:00;;;;;;;0.00;0.00;;;;;;;32.20;34.36;99082.44;5079806;28;20048;-64
2023/06/18 09:14:27;;;;;;;0.00;0.00;;;;;;;33.54;32.62;99078.56;5077684;28;20041;-64
2023/06/18 09:16:57;;;;;;;0.00;0.00;;;;;;;33.19;33.55;99075.44;5080351;28;20159;-65
2023/06/18 09:19:24;;;;;;;0.00;0.00;;;;;;;33.68;32.49;99062.66;5083041;28;20064;-64
2023/06/18 09:21:52;;;;;;;0.00;0.00;;;;;;;33.23;33.13;99067.13;5075502;28;20740;-64
2023/06/18 09:24:20;;;;;;;0.00;0.00;;;;;;;32.51;33.87;99058.78;5086194;28;20043;-64
2023/06/18 09:26:48;;;;;;;0.00;0.00;;;;;;;33.50;32.41;99059.13;5082769;28;20396;-65
2023/06/18 09:29:17;;;;;;;0.00;0.00;;;;;;;33.00;32.69;99054.44;5078515;28;20580;-64
2023/06/18 09:31:45;;;;;;;0.00;0.00;;;;;;;33.19;33.00;99052.44;5075187;28;20098;-64
2023/06/18 09:34:14;;;;;;;0.00;0.00;;;;;;;32.92;32.14;99046.50;5081219;28;20568;-64
2023/06/18 09:36:41;;;;;;;0.00;0.00;;;;;;;33.17;31.63;99060.38;5076948;28;20652;-64
2023/06/18 09:39:18;;;;;;;0.00;0.00;;;;;;;33.43;31.30;99045.28;5076734;28;20048;-65
2023/06/18 09:41:46;;;;;;;0.00;0.00;;;;;;;33.79;31.39;99043.16;5074728;28;20502;-65
2023/06/18 09:44:14;;;;;;;0.00;0.00;;;;;;;32.64;32.24;99045.31;5076750;28;20072;-64
2023/06/18 09:46:47;;;;;;;0.00;0.00;;;;;;;33.01;28.22;99041.34;5084727;28;20040;-64
2023/06/18 09:49:15;;;;;;;0.00;0.00;;;;;;;33.06;31.23;99043.75;5078812;28;20470;-64
2023/06/18 09:51:43;;;;;;;0.00;0.00;;;;;;;30.90;29.82;99042.16;5078254;28;20076;-64
2023/06/18 09:54:11;;;;;;;0.00;0.00;;;;;;;31.00;29.92;99046.16;5073649;28;20136;-64
2023/06/18 09:56:39;;;;;;;0.00;0.00;;;;;;;29.99;29.56;99038.84;5074734;28;20063;-64
2023/06/18 09:59:07;;;;;;;0.00;0.00;;;;;;;31.64;30.97;99039.47;5086990;28;20127;-64
2023/06/18 10:01:48;;;;;;;0.00;0.00;;;;;;;31.03;29.44;99042.66;5081692;28;20048;-64
2023/06/18 10:04:16;;;;;;;0.00;0.00;;;;;;;29.96;29.71;99033.31;5080435;28;20048;-64
2023/06/18 10:06:48;;;;;;;0.00;0.00;;;;;;;28.20;32.07;99041.59;5083698;28;20040;-64
2023/06/18 10:09:15;;;;;;;0.00;0.00;;;;;;;31.16;28.56;99037.59;5082379;28;20130;-64
2023/06/18 10:11:43;;;;;;;0.00;0.00;;;;;;;32.90;26.46;99032.22;5086344;28;20409;-64
2023/06/18 10:14:11;;;;;;;0.00;0.00;;;;;;;33.49;26.74;99032.53;5085668;28;20125;-63
2023/06/18 10:16:41;;;;;;;0.05;0.00;;;;;;;31.56;25.84;99039.44;5079740;28;20044;-63
2023/06/18 10:19:12;;;;;;;0.00;0.00;;;;;;;31.18;27.14;99035.25;5081330;28;20058;-63
2023/06/18 10:21:46;;;;;;;0.00;0.00;;;;;;;29.00;29.25;99034.31;5072666;28;20167;-63
2023/06/18 10:24:14;;;;;;;0.00;0.00;;;;;;;29.01;29.38;99033.16;5077407;28;20542;-64
2023/06/18 10:26:42;;;;;;;0.00;0.00;;;;;;;30.20;27.98;99023.69;5080209;28;20516;-63
2023/06/18 10:29:11;;;;;;;0.03;0.00;;;;;;;30.26;28.70;99030.50;5068918;28;20045;-63
2023/06/18 10:31:38;;;;;;;0.00;0.00;;;;;;;30.07;28.41;99021.19;5098624;28;20498;-63
2023/06/18 10:34:06;;;;;;;0.00;0.00;;;;;;;31.14;27.17;99024.13;5084402;28;20117;-63
2023/06/18 10:36:35;;;;;;;0.17;0.00;;;;;;;33.22;25.05;99024.66;5074839;28;20035;-63
2023/06/18 10:39:02;;;;;;;0.03;0.00;;;;;;;30.02;25.87;99026.25;5083298;28;20095;-63
2023/06/18 10:41:30;;;;;;;0.00;0.00;;;;;;;30.56;25.45;99016.56;5084631;28;20058;-63
2023/06/18 10:43:57;;;;;;;0.00;0.00;;;;;;;30.88;25.25;99027.13;5072858;28;20465;-63
2023/06/18 10:46:25;;;;;;;0.00;0.00;;;;;;;31.46;24.64;99012.47;5076736;28;20510;-63
2023/06/18 10:49:15;;;;;;;0.00;0.00;;;;;;;28.99;26.65;99013.41;5085722;28;20073;-63
2023/06/18 10:51:51;;;;;;;0.00;0.00;;;;;;;28.90;27.55;99018.41;5069153;28;20064;-62
2023/06/18 10:54:23;;;;;;;0.00;0.00;;;;;;;30.77;25.12;99015.94;5076445;28;20333;-63
2023/06/18 10:57:00;;;;;;;0.00;0.00;;;;;;;29.43;26.72;99001.84;5077628;28;20126;-63
2023/06/18 10:59:37;;;;;;;0.00;0.00;;;;;;;29.21;26.90;99005.50;5082386;28;20041;-62
2023/06/18 11:02:05;;;;;;;0.00;0.00;;;;;;;29.29;25.49;99001.66;5078619;28;20040;-62
2023/06/18 11:04:33;;;;;;;0.00;0.00;;;;;;;31.31;24.29;98997.72;5085138;28;20050;-63
2023/06/18 11:07:19;;;;;;;0.00;0.00;;;;;;;32.68;23.82;98990.63;5077227;28;20102;-63
2023/06/18 11:09:48;;;;;;;0.00;0.00;;;;;;;31.64;24.24;98995.16;5080993;28;20063;-63
2023/06/18 11:12:19;;;;;;;0.00;0.00;;;;;;;31.28;24.29;98989.44;5076355;28;20093;-63
2023/06/18 11:15:05;;;;;;;0.00;0.00;;;;;;;30.13;25.84;98985.72;5075441;28;20082;-63
2023/06/18 11:17:33;;;;;;;0.00;0.00;;;;;;;30.76;25.74;98991.44;5077258;28;20046;-63
2023/06/18 11:20:01;;;;;;;0.00;0.00;;;;;;;29.76;26.79;98982.97;5083479;28;20991;-62
2023/06/18 11:22:30;;;;;;;0.00;0.00;;;;;;;30.29;26.07;98974.44;5076639;28;20044;-62
2023/06/18 11:24:58;;;;;;;0.00;0.00;;;;;;;30.52;26.26;98974.25;5083720;28;20045;-63
2023/06/18 11:27:26;;;;;;;0.00;0.00;;;;;;;30.30;26.21;98970.50;5082626;28;20318;-62
2023/06/18 11:29:55;;;;;;;0.00;0.00;;;;;;;30.92;25.59;98975.34;5078694;28;20036;-62
2023/06/18 11:32:23;;;;;;;0.00;0.00;;;;;;;31.32;25.28;98966.09;5079882;28;20048;-63
2023/06/18 11:34:51;;;;;;;0.00;0.00;;;;;;;30.94;26.22;98959.16;5074169;28;20142;-63
2023/06/18 11:37:18;;;;;;;0.00;0.00;;;;;;;30.24;26.68;98964.53;5073485;28;20030;-63
2023/06/18 11:39:48;;;;;;;0.10;0.00;;;;;;;30.54;26.62;98963.59;5077167;28;20033;-63
2023/06/18 11:42:15;;;;;;;0.00;0.00;;;;;;;29.92;27.09;98950.38;5078234;28;20376;-63